sensor_id;sensor_type;location;lat;lon;timestamp;temperature;humidity
6496;DHT22;3281;47.658;9.166;2023-05-10T00:02:19;14.20;25.60
6496;DHT22;3281;47.658;9.166;2023-05-10T00:04:46;14.20;28.30
6496;DHT22;3281;47.658;9.166;2023-05-10T00:07:13;14.10;22.60
6496;DHT22;3281;47.658;9.166;2023-05-10T00:09:41;14.20;21.90
6496;DHT22;3281;47.658;9.166;2023-05-10T00:12:08;14.10;20.50
6496;DHT22;3281;47.658;9.166;2023-05-10T00:14:36;14.10;19.40
6496;DHT22;3281;47.658;9.166;2023-05-10T00:17:03;14.00;20.20
6496;DHT22;3281;47.658;9.166;2023-05-10T00:19:30;13.90;14.40
6496;DHT22;3281;47.658;9.166;2023-05-10T00:21:56;13.90;16.50
6496;DHT22;3281;47.658;9.166;2023-05-10T00:24:23;13.90;17.50
6496;DHT22;3281;47.658;9.166;2023-05-10T00:26:50;13.90;15.60
6496;DHT22;3281;47.658;9.166;2023-05-10T00:29:17;13.90;13.90
6496;DHT22;3281;47.658;9.166;2023-05-10T00:31:45;13.80;11.10
6496;DHT22;3281;47.658;9.166;2023-05-10T00:34:11;13.90;17.50
6496;DHT22;3281;47.658;9.166;2023-05-10T00:36:38;13.80;11.10
6496;DHT22;3281;47.658;9.166;2023-05-10T00:39:05;13.80;11.20
6496;DHT22;3281;47.658;9.166;2023-05-10T00:41:31;13.80;9.00
6496;DHT22;3281;47.658;9.166;2023-05-10T00:43:58;13.80;11.20
6496;DHT22;3281;47.658;9.166;2023-05-10T00:46:26;13.80;8.10
6496;DHT22;3281;47.658;9.166;2023-05-10T00:48:54;13.70;4.00
6496;DHT22;3281;47.658;9.166;2023-05-10T00:51:21;13.70;4.10
6496;DHT22;3281;47.658;9.166;2023-05-10T00:53:48;13.70;1.50
6496;DHT22;3281;47.658;9.166;2023-05-10T00:56:16;13.70;1.70
6496;DHT22;3281;47.658;9.166;2023-05-10T00:58:43;13.70;1.00
6496;DHT22;3281;47.658;9.166;2023-05-10T01:01:10;13.70;1.00
6496;DHT22;3281;47.658;9.166;2023-05-10T01:03:37;13.70;1.00
6496;DHT22;3281;47.658;9.166;2023-05-10T01:06:05;13.70;1.00
6496;DHT22;3281;47.658;9.166;2023-05-10T01:08:32;13.60;1.00
6496;DHT22;3281;47.658;9.166;2023-05-10T01:10:59;13.60;1.00
6496;DHT22;3281;47.658;9.166;2023-05-10T01:13:31;13.60;1.00
6496;DHT22;3281;47.658;9.166;2023-05-10T01:16:00;13.60;1.00
6496;DHT22;3281;47.658;9.166;2023-05-10T01:18:29;13.60;1.00
6496;DHT22;3281;47.658;9.166;2023-05-10T01:21:02;13.70;1.00
6496;DHT22;3281;47.658;9.166;2023-05-10T01:23:40;13.60;1.00
6496;DHT22;3281;47.658;9.166;2023-05-10T01:26:47;13.60;1.00
6496;DHT22;3281;47.658;9.166;2023-05-10T01:29:43;13.60;1.00
6496;DHT22;3281;47.658;9.166;2023-05-10T01:32:23;13.60;1.00
6496;DHT22;3281;47.658;9.166;2023-05-10T01:34:59;13.60;1.00
6496;DHT22;3281;47.658;9.166;2023-05-10T01:37:33;13.60;1.00
6496;DHT22;3281;47.658;9.166;2023-05-10T01:40:10;13.60;1.00
6496;DHT22;3281;47.658;9.166;2023-05-10T01:42:43;13.60;1.00
6496;DHT22;3281;47.658;9.166;2023-05-10T01:45:16;13.60;1.00
6496;DHT22;3281;47.658;9.166;2023-05-10T01:47:49;13.60;1.00
6496;DHT22;3281;47.658;9.166;2023-05-10T01:50:18;13.60;1.00
6496;DHT22;3281;47.658;9.166;2023-05-10T01:52:51;13.60;1.00
6496;DHT22;3281;47.658;9.166;2023-05-10T01:55:20;13.70;1.00
6496;DHT22;3281;47.658;9.166;2023-05-10T01:57:51;13.60;1.00
6496;DHT22;3281;47.658;9.166;2023-05-10T02:00:20;13.60;1.00
6496;DHT22;3281;47.658;9.166;2023-05-10T02:02:49;13.60;1.00
6496;DHT22;3281;47.658;9.166;2023-05-10T02:05:17;13.70;1.00
6496;DHT22;3281;47.658;9.166;2023-05-10T02:07:45;13.70;1.00
6496;DHT22;3281;47.658;9.166;2023-05-10T02:10:13;13.60;1.00
6496;DHT22;3281;47.658;9.166;2023-05-10T02:12:42;13.60;1.00
6496;DHT22;3281;47.658;9.166;2023-05-10T02:15:12;13.70;1.00
6496;DHT22;3281;47.658;9.166;2023-05-10T02:17:39;13.70;1.00
6496;DHT22;3281;47.658;9.166;2023-05-10T02:20:10;13.70;1.00
6496;DHT22;3281;47.658;9.166;2023-05-10T02:22:38;13.70;1.00
6496;DHT22;3281;47.658;9.166;2023-05-10T02:25:07;13.70;1.00
6496;DHT22;3281;47.658;9.166;2023-05-10T02:27:36;13.70;1.00
6496;DHT22;3281;47.658;9.166;2023-05-10T02:30:04;13.70;1.00
6496;DHT22;3281;47.658;9.166;2023-05-10T02:32:31;13.70;1.00
6496;DHT22;3281;47.658;9.166;2023-05-10T02:35:00;13.70;1.00
6496;DHT22;3281;47.658;9.166;2023-05-10T02:37:29;13.70;1.00
6496;DHT22;3281;47.658;9.166;2023-05-10T02:39:58;13.70;1.00
6496;DHT22;3281;47.658;9.166;2023-05-10T02:42:27;13.70;1.00
6496;DHT22;3281;47.658;9.166;2023-05-10T02:44:58;13.70;1.00
6496;DHT22;3281;47.658;9.166;2023-05-10T02:47:26;13.70;1.00
6496;DHT22;3281;47.658;9.166;2023-05-10T02:49:53;13.70;1.00
6496;DHT22;3281;47.658;9.166;2023-05-10T02:52:23;13.60;1.00
6496;DHT22;3281;47.658;9.166;2023-05-10T02:54:55;13.60;1.00
6496;DHT22;3281;47.658;9.166;2023-05-10T02:57:28;13.60;1.00
6496;DHT22;3281;47.658;9.166;2023-05-10T02:59:55;13.60;1.00
6496;DHT22;3281;47.658;9.166;2023-05-10T03:02:22;13.60;1.00
6496;DHT22;3281;47.658;9.166;2023-05-10T03:04:48;13.60;1.00
6496;DHT22;3281;47.658;9.166;2023-05-10T03:07:15;13.60;1.00
6496;DHT22;3281;47.658;9.166;2023-05-10T03:09:44;13.50;1.00
6496;DHT22;3281;47.658;9.166;2023-05-10T03:12:18;13.50;1.00
6496;DHT22;3281;47.658;9.166;2023-05-10T03:15:02;13.50;1.00
6496;DHT22;3281;47.658;9.166;2023-05-10T03:17:32;13.50;1.00
6496;DHT22;3281;47.658;9.166;2023-05-10T03:20:04;13.60;1.00
6496;DHT22;3281;47.658;9.166;2023-05-10T03:22:37;13.60;1.00
6496;DHT22;3281;47.658;9.166;2023-05-10T03:25:06;13.60;1.00
6496;DHT22;3281;47.658;9.166;2023-05-10T03:27:36;13.60;1.00
6496;DHT22;3281;47.658;9.166;2023-05-10T03:30:03;13.60;1.00
6496;DHT22;3281;47.658;9.166;2023-05-10T03:32:31;13.60;1.00
6496;DHT22;3281;47.658;9.166;2023-05-10T03:35:00;13.70;1.00
6496;DHT22;3281;47.658;9.166;2023-05-10T03:37:27;13.70;1.00
6496;DHT22;3281;47.658;9.166;2023-05-10T03:39:54;13.60;1.00
6496;DHT22;3281;47.658;9.166;2023-05-10T03:42:21;13.60;1.00
6496;DHT22;3281;47.658;9.166;2023-05-10T03:44:49;13.70;1.00
6496;DHT22;3281;47.658;9.166;2023-05-10T03:47:15;13.80;1.00
6496;DHT22;3281;47.658;9.166;2023-05-10T03:49:42;13.70;1.00
6496;DHT22;3281;47.658;9.166;2023-05-10T03:52:09;13.70;1.00
6496;DHT22;3281;47.658;9.166;2023-05-10T03:54:35;13.70;1.00
6496;DHT22;3281;47.658;9.166;2023-05-10T03:57:02;13.70;1.00
6496;DHT22;3281;47.658;9.166;2023-05-10T03:59:29;13.70;1.00
6496;DHT22;3281;47.658;9.166;2023-05-10T04:01:57;13.80;1.00
6496;DHT22;3281;47.658;9.166;2023-05-10T04:04:24;13.80;1.00
6496;DHT22;3281;47.658;9.166;2023-05-10T04:06:50;13.70;1.00
6496;DHT22;3281;47.658;9.166;2023-05-10T04:09:17;13.70;1.00
6496;DHT22;3281;47.658;9.166;2023-05-10T04:11:44;13.80;1.00
6496;DHT22;3281;47.658;9.166;2023-05-10T04:14:11;13.70;1.00
6496;DHT22;3281;47.658;9.166;2023-05-10T04:16:37;13.70;1.00
6496;DHT22;3281;47.658;9.166;2023-05-10T04:19:05;13.70;1.00
6496;DHT22;3281;47.658;9.166;2023-05-10T04:21:32;13.70;1.00
6496;DHT22;3281;47.658;9.166;2023-05-10T04:23:59;13.70;1.00
6496;DHT22;3281;47.658;9.166;2023-05-10T04:26:26;13.70;1.00
6496;DHT22;3281;47.658;9.166;2023-05-10T04:28:52;13.80;1.00
6496;DHT22;3281;47.658;9.166;2023-05-10T04:31:19;13.80;1.00
6496;DHT22;3281;47.658;9.166;2023-05-10T04:33:47;13.70;1.00
6496;DHT22;3281;47.658;9.166;2023-05-10T04:36:15;13.80;1.00
6496;DHT22;3281;47.658;9.166;2023-05-10T04:38:41;13.80;1.00
6496;DHT22;3281;47.658;9.166;2023-05-10T04:41:10;13.80;1.00
6496;DHT22;3281;47.658;9.166;2023-05-10T04:43:37;13.80;1.00
6496;DHT22;3281;47.658;9.166;2023-05-10T04:46:05;13.90;1.00
6496;DHT22;3281;47.658;9.166;2023-05-10T04:48:32;13.80;1.00
6496;DHT22;3281;47.658;9.166;2023-05-10T04:50:59;13.80;1.00
6496;DHT22;3281;47.658;9.166;2023-05-10T04:53:27;13.80;1.00
6496;DHT22;3281;47.658;9.166;2023-05-10T04:55:53;13.80;1.00
6496;DHT22;3281;47.658;9.166;2023-05-10T04:58:20;13.80;1.00
6496;DHT22;3281;47.658;9.166;2023-05-10T05:00:47;13.90;1.00
6496;DHT22;3281;47.658;9.166;2023-05-10T05:03:14;13.90;1.00
6496;DHT22;3281;47.658;9.166;2023-05-10T05:05:40;13.90;1.00
6496;DHT22;3281;47.658;9.166;2023-05-10T05:08:07;13.90;1.00
6496;DHT22;3281;47.658;9.166;2023-05-10T05:10:35;13.90;1.00
6496;DHT22;3281;47.658;9.166;2023-05-10T05:13:02;13.90;1.00
6496;DHT22;3281;47.658;9.166;2023-05-10T05:15:29;13.90;1.00
6496;DHT22;3281;47.658;9.166;2023-05-10T05:17:56;13.90;1.00
6496;DHT22;3281;47.658;9.166;2023-05-10T05:20:22;13.90;1.00
6496;DHT22;3281;47.658;9.166;2023-05-10T05:22:49;13.90;1.00
6496;DHT22;3281;47.658;9.166;2023-05-10T05:25:16;14.00;1.00
6496;DHT22;3281;47.658;9.166;2023-05-10T05:27:44;14.00;1.00
6496;DHT22;3281;47.658;9.166;2023-05-10T05:30:11;14.00;1.00
6496;DHT22;3281;47.658;9.166;2023-05-10T05:32:38;14.10;1.00
6496;DHT22;3281;47.658;9.166;2023-05-10T05:35:05;14.00;1.00
6496;DHT22;3281;47.658;9.166;2023-05-10T05:37:32;14.00;1.00
6496;DHT22;3281;47.658;9.166;2023-05-10T05:39:58;13.90;1.00
6496;DHT22;3281;47.658;9.166;2023-05-10T05:42:27;13.90;1.00
6496;DHT22;3281;47.658;9.166;2023-05-10T05:44:55;13.90;1.00
6496;DHT22;3281;47.658;9.166;2023-05-10T05:47:21;13.80;1.00
6496;DHT22;3281;47.658;9.166;2023-05-10T05:49:48;13.80;1.00
6496;DHT22;3281;47.658;9.166;2023-05-10T05:52:15;13.70;1.00
6496;DHT22;3281;47.658;9.166;2023-05-10T05:54:42;13.70;1.00
6496;DHT22;3281;47.658;9.166;2023-05-10T05:57:09;13.80;1.00
6496;DHT22;3281;47.658;9.166;2023-05-10T05:59:35;13.70;1.00
6496;DHT22;3281;47.658;9.166;2023-05-10T06:02:08;13.70;1.00
6496;DHT22;3281;47.658;9.166;2023-05-10T06:04:35;13.80;1.00
6496;DHT22;3281;47.658;9.166;2023-05-10T06:07:01;13.80;1.00
6496;DHT22;3281;47.658;9.166;2023-05-10T06:09:28;13.80;1.00
6496;DHT22;3281;47.658;9.166;2023-05-10T06:11:55;13.80;1.00
6496;DHT22;3281;47.658;9.166;2023-05-10T06:14:21;13.80;1.00
6496;DHT22;3281;47.658;9.166;2023-05-10T06:16:48;13.90;1.00
6496;DHT22;3281;47.658;9.166;2023-05-10T06:19:16;13.90;1.00
6496;DHT22;3281;47.658;9.166;2023-05-10T06:21:43;13.90;1.00
6496;DHT22;3281;47.658;9.166;2023-05-10T06:24:10;13.90;1.00
6496;DHT22;3281;47.658;9.166;2023-05-10T06:26:36;13.90;1.00
6496;DHT22;3281;47.658;9.166;2023-05-10T06:29:03;13.90;1.00
6496;DHT22;3281;47.658;9.166;2023-05-10T06:31:30;14.00;1.00
6496;DHT22;3281;47.658;9.166;2023-05-10T06:33:57;14.00;1.00
6496;DHT22;3281;47.658;9.166;2023-05-10T06:36:25;14.10;1.00
6496;DHT22;3281;47.658;9.166;2023-05-10T06:38:52;14.10;1.00
6496;DHT22;3281;47.658;9.166;2023-05-10T06:41:19;14.10;1.00
6496;DHT22;3281;47.658;9.166;2023-05-10T06:43:46;14.10;1.00
6496;DHT22;3281;47.658;9.166;2023-05-10T06:46:13;14.20;1.00
6496;DHT22;3281;47.658;9.166;2023-05-10T06:48:40;14.10;1.00
6496;DHT22;3281;47.658;9.166;2023-05-10T06:51:06;14.20;1.00
6496;DHT22;3281;47.658;9.166;2023-05-10T06:53:34;14.30;1.00
6496;DHT22;3281;47.658;9.166;2023-05-10T06:56:01;14.30;1.00
6496;DHT22;3281;47.658;9.166;2023-05-10T06:58:28;14.30;1.00
6496;DHT22;3281;47.658;9.166;2023-05-10T07:01:01;14.30;1.00
6496;DHT22;3281;47.658;9.166;2023-05-10T07:03:28;14.30;1.00
6496;DHT22;3281;47.658;9.166;2023-05-10T07:06:00;14.30;1.00
6496;DHT22;3281;47.658;9.166;2023-05-10T07:08:28;14.20;1.00
6496;DHT22;3281;47.658;9.166;2023-05-10T07:11:00;14.30;1.00
6496;DHT22;3281;47.658;9.166;2023-05-10T07:13:29;14.30;1.00
6496;DHT22;3281;47.658;9.166;2023-05-10T07:15:55;14.40;1.00
6496;DHT22;3281;47.658;9.166;2023-05-10T07:18:22;14.30;1.00
6496;DHT22;3281;47.658;9.166;2023-05-10T07:20:49;14.40;1.00
6496;DHT22;3281;47.658;9.166;2023-05-10T07:23:15;14.40;1.00
6496;DHT22;3281;47.658;9.166;2023-05-10T07:25:45;14.40;1.00
6496;DHT22;3281;47.658;9.166;2023-05-10T07:28:13;14.50;1.00
6496;DHT22;3281;47.658;9.166;2023-05-10T07:30:40;14.40;1.00
6496;DHT22;3281;47.658;9.166;2023-05-10T07:33:08;14.50;1.00
6496;DHT22;3281;47.658;9.166;2023-05-10T07:35:35;14.40;1.00
6496;DHT22;3281;47.658;9.166;2023-05-10T07:38:02;14.40;1.00
6496;DHT22;3281;47.658;9.166;2023-05-10T07:40:29;14.40;1.00
6496;DHT22;3281;47.658;9.166;2023-05-10T07:42:56;14.40;1.00
6496;DHT22;3281;47.658;9.166;2023-05-10T07:45:24;14.40;1.00
6496;DHT22;3281;47.658;9.166;2023-05-10T07:47:50;14.40;1.00
6496;DHT22;3281;47.658;9.166;2023-05-10T07:50:17;14.40;1.00
6496;DHT22;3281;47.658;9.166;2023-05-10T07:52:44;14.50;1.00
6496;DHT22;3281;47.658;9.166;2023-05-10T07:55:11;14.60;1.00
6496;DHT22;3281;47.658;9.166;2023-05-10T07:57:38;14.60;1.00
6496;DHT22;3281;47.658;9.166;2023-05-10T08:00:05;14.60;1.00
6496;DHT22;3281;47.658;9.166;2023-05-10T08:02:35;14.60;1.00
6496;DHT22;3281;47.658;9.166;2023-05-10T08:05:02;14.60;1.00
6496;DHT22;3281;47.658;9.166;2023-05-10T08:07:28;14.60;1.00
6496;DHT22;3281;47.658;9.166;2023-05-10T08:09:55;14.60;1.00
6496;DHT22;3281;47.658;9.166;2023-05-10T08:12:22;14.70;1.00
6496;DHT22;3281;47.658;9.166;2023-05-10T08:14:48;14.70;1.00
6496;DHT22;3281;47.658;9.166;2023-05-10T08:17:15;14.70;1.00
6496;DHT22;3281;47.658;9.166;2023-05-10T08:19:43;14.70;1.00
6496;DHT22;3281;47.658;9.166;2023-05-10T08:22:10;14.60;1.00
6496;DHT22;3281;47.658;9.166;2023-05-10T08:24:36;14.50;1.00
6496;DHT22;3281;47.658;9.166;2023-05-10T08:27:04;14.60;1.00
6496;DHT22;3281;47.658;9.166;2023-05-10T08:29:31;14.50;1.00
6496;DHT22;3281;47.658;9.166;2023-05-10T08:31:58;14.40;1.00
6496;DHT22;3281;47.658;9.166;2023-05-10T08:34:26;14.30;1.00
6496;DHT22;3281;47.658;9.166;2023-05-10T08:36:54;14.20;1.00
6496;DHT22;3281;47.658;9.166;2023-05-10T08:39:20;14.10;1.00
6496;DHT22;3281;47.658;9.166;2023-05-10T08:41:51;14.20;1.00
6496;DHT22;3281;47.658;9.166;2023-05-10T08:44:19;14.30;1.00
6496;DHT22;3281;47.658;9.166;2023-05-10T08:46:48;14.30;1.00
6496;DHT22;3281;47.658;9.166;2023-05-10T08:49:17;14.30;1.00
6496;DHT22;3281;47.658;9.166;2023-05-10T08:51:50;14.40;1.00
6496;DHT22;3281;47.658;9.166;2023-05-10T08:54:19;14.50;1.00
6496;DHT22;3281;47.658;9.166;2023-05-10T08:56:47;14.60;1.00
6496;DHT22;3281;47.658;9.166;2023-05-10T08:59:13;14.60;1.00
6496;DHT22;3281;47.658;9.166;2023-05-10T09:01:43;14.70;1.00
6496;DHT22;3281;47.658;9.166;2023-05-10T09:04:11;14.70;1.00
6496;DHT22;3281;47.658;9.166;2023-05-10T09:06:38;14.60;1.00
6496;DHT22;3281;47.658;9.166;2023-05-10T09:09:05;14.80;1.00
6496;DHT22;3281;47.658;9.166;2023-05-10T09:11:34;14.80;1.00
6496;DHT22;3281;47.658;9.166;2023-05-10T09:14:01;14.80;1.00
6496;DHT22;3281;47.658;9.166;2023-05-10T09:16:27;14.90;1.00
6496;DHT22;3281;47.658;9.166;2023-05-10T09:18:54;14.90;1.00
6496;DHT22;3281;47.658;9.166;2023-05-10T09:21:21;15.00;1.00
6496;DHT22;3281;47.658;9.166;2023-05-10T09:23:48;15.00;1.00
6496;DHT22;3281;47.658;9.166;2023-05-10T09:26:16;15.10;1.00
6496;DHT22;3281;47.658;9.166;2023-05-10T09:28:55;15.00;1.00
6496;DHT22;3281;47.658;9.166;2023-05-10T09:31:22;15.20;1.00
6496;DHT22;3281;47.658;9.166;2023-05-10T09:33:50;15.10;1.00
6496;DHT22;3281;47.658;9.166;2023-05-10T09:36:17;15.10;1.00
6496;DHT22;3281;47.658;9.166;2023-05-10T09:38:47;15.20;1.00
6496;DHT22;3281;47.658;9.166;2023-05-10T09:41:18;15.40;1.00
6496;DHT22;3281;47.658;9.166;2023-05-10T09:43:46;15.60;1.00
6496;DHT22;3281;47.658;9.166;2023-05-10T09:46:14;15.60;1.00
6496;DHT22;3281;47.658;9.166;2023-05-10T09:48:43;15.50;1.00
6496;DHT22;3281;47.658;9.166;2023-05-10T09:51:10;15.70;1.00
6496;DHT22;3281;47.658;9.166;2023-05-10T09:53:36;15.60;1.00
6496;DHT22;3281;47.658;9.166;2023-05-10T09:56:04;15.80;1.00
6496;DHT22;3281;47.658;9.166;2023-05-10T09:58:30;15.90;1.00
6496;DHT22;3281;47.658;9.166;2023-05-10T10:00:57;16.00;1.00
6496;DHT22;3281;47.658;9.166;2023-05-10T10:03:25;16.00;1.00
6496;DHT22;3281;47.658;9.166;2023-05-10T10:05:52;16.30;1.00
6496;DHT22;3281;47.658;9.166;2023-05-10T10:08:21;16.10;1.00
6496;DHT22;3281;47.658;9.166;2023-05-10T10:10:49;16.30;1.00
6496;DHT22;3281;47.658;9.166;2023-05-10T10:13:16;16.30;1.00
6496;DHT22;3281;47.658;9.166;2023-05-10T10:15:43;16.20;1.00
6496;DHT22;3281;47.658;9.166;2023-05-10T10:18:13;16.30;1.00
6496;DHT22;3281;47.658;9.166;2023-05-10T10:20:42;16.80;1.00
6496;DHT22;3281;47.658;9.166;2023-05-10T10:23:08;17.00;1.00
6496;DHT22;3281;47.658;9.166;2023-05-10T10:25:35;17.20;1.00
6496;DHT22;3281;47.658;9.166;2023-05-10T10:28:18;16.80;1.00
6496;DHT22;3281;47.658;9.166;2023-05-10T10:30:51;16.70;1.00
6496;DHT22;3281;47.658;9.166;2023-05-10T10:33:36;16.40;1.00
6496;DHT22;3281;47.658;9.166;2023-05-10T10:36:07;16.50;1.00
6496;DHT22;3281;47.658;9.166;2023-05-10T10:41:28;16.30;1.00
6496;DHT22;3281;47.658;9.166;2023-05-10T10:44:22;16.10;1.00
6496;DHT22;3281;47.658;9.166;2023-05-10T10:47:03;16.00;1.00
6496;DHT22;3281;47.658;9.166;2023-05-10T10:49:31;16.10;1.00
6496;DHT22;3281;47.658;9.166;2023-05-10T10:52:21;16.10;1.00
6496;DHT22;3281;47.658;9.166;2023-05-10T10:54:51;15.90;1.00
6496;DHT22;3281;47.658;9.166;2023-05-10T10:57:19;15.80;1.00
6496;DHT22;3281;47.658;9.166;2023-05-10T10:59:47;16.00;1.00
6496;DHT22;3281;47.658;9.166;2023-05-10T11:02:33;16.00;1.00
6496;DHT22;3281;47.658;9.166;2023-05-10T11:05:09;15.80;1.00
6496;DHT22;3281;47.658;9.166;2023-05-10T11:07:54;15.70;1.00
6496;DHT22;3281;47.658;9.166;2023-05-10T11:10:22;15.70;1.00
6496;DHT22;3281;47.658;9.166;2023-05-10T11:12:53;15.70;1.00
6496;DHT22;3281;47.658;9.166;2023-05-10T11:15:29;15.60;1.00
6496;DHT22;3281;47.658;9.166;2023-05-10T11:17:56;15.60;1.00
6496;DHT22;3281;47.658;9.166;2023-05-10T11:20:23;15.60;1.00
6496;DHT22;3281;47.658;9.166;2023-05-10T11:22:55;15.60;1.00
6496;DHT22;3281;47.658;9.166;2023-05-10T11:25:26;15.50;1.00
6496;DHT22;3281;47.658;9.166;2023-05-10T11:27:53;15.50;1.00
6496;DHT22;3281;47.658;9.166;2023-05-10T11:30:20;15.50;1.00
6496;DHT22;3281;47.658;9.166;2023-05-10T11:32:47;15.40;1.00
6496;DHT22;3281;47.658;9.166;2023-05-10T11:35:14;15.50;1.00
6496;DHT22;3281;47.658;9.166;2023-05-10T11:37:41;15.40;1.00
6496;DHT22;3281;47.658;9.166;2023-05-10T11:40:11;15.60;1.00
6496;DHT22;3281;47.658;9.166;2023-05-10T11:42:38;15.60;1.00
6496;DHT22;3281;47.658;9.166;2023-05-10T11:45:06;15.60;1.00
6496;DHT22;3281;47.658;9.166;2023-05-10T11:47:33;15.60;1.00
6496;DHT22;3281;47.658;9.166;2023-05-10T11:50:02;15.70;1.00
6496;DHT22;3281;47.658;9.166;2023-05-10T11:52:29;15.60;1.00
6496;DHT22;3281;47.658;9.166;2023-05-10T11:55:01;15.60;1.00
6496;DHT22;3281;47.658;9.166;2023-05-10T11:57:30;15.70;1.00
6496;DHT22;3281;47.658;9.166;2023-05-10T11:59:57;15.70;1.00
6496;DHT22;3281;47.658;9.166;2023-05-10T12:02:24;15.60;1.00
6496;DHT22;3281;47.658;9.166;2023-05-10T12:04:51;15.60;1.00
6496;DHT22;3281;47.658;9.166;2023-05-10T12:07:17;15.80;1.00
6496;DHT22;3281;47.658;9.166;2023-05-10T12:09:48;15.80;1.00
6496;DHT22;3281;47.658;9.166;2023-05-10T12:12:37;15.80;1.00
6496;DHT22;3281;47.658;9.166;2023-05-10T12:15:05;15.80;1.00
6496;DHT22;3281;47.658;9.166;2023-05-10T12:17:32;15.90;1.00
6496;DHT22;3281;47.658;9.166;2023-05-10T12:20:13;15.90;1.00
6496;DHT22;3281;47.658;9.166;2023-05-10T12:22:40;16.00;1.00
6496;DHT22;3281;47.658;9.166;2023-05-10T12:25:08;16.00;1.00
6496;DHT22;3281;47.658;9.166;2023-05-10T12:27:37;16.10;1.00
6496;DHT22;3281;47.658;9.166;2023-05-10T12:30:04;16.10;1.00
6496;DHT22;3281;47.658;9.166;2023-05-10T12:32:38;16.20;1.00
6496;DHT22;3281;47.658;9.166;2023-05-10T12:35:05;16.30;1.00
6496;DHT22;3281;47.658;9.166;2023-05-10T12:37:32;16.30;1.00
6496;DHT22;3281;47.658;9.166;2023-05-10T12:40:01;16.30;1.00
6496;DHT22;3281;47.658;9.166;2023-05-10T12:42:30;16.40;1.00
6496;DHT22;3281;47.658;9.166;2023-05-10T12:44:59;16.30;1.00
6496;DHT22;3281;47.658;9.166;2023-05-10T12:47:25;16.20;1.00
6496;DHT22;3281;47.658;9.166;2023-05-10T12:49:52;16.20;1.00
6496;DHT22;3281;47.658;9.166;2023-05-10T12:52:19;16.20;1.00
6496;DHT22;3281;47.658;9.166;2023-05-10T12:54:46;16.20;1.00
6496;DHT22;3281;47.658;9.166;2023-05-10T12:57:13;16.30;1.00
6496;DHT22;3281;47.658;9.166;2023-05-10T12:59:40;16.30;1.00
6496;DHT22;3281;47.658;9.166;2023-05-10T13:02:08;16.20;1.00
6496;DHT22;3281;47.658;9.166;2023-05-10T13:04:35;16.20;1.00
6496;DHT22;3281;47.658;9.166;2023-05-10T13:07:04;16.40;1.00
6496;DHT22;3281;47.658;9.166;2023-05-10T13:09:31;16.40;1.00
6496;DHT22;3281;47.658;9.166;2023-05-10T13:11:58;16.40;1.00
6496;DHT22;3281;47.658;9.166;2023-05-10T13:14:25;16.50;1.00
6496;DHT22;3281;47.658;9.166;2023-05-10T13:16:52;16.60;1.00
6496;DHT22;3281;47.658;9.166;2023-05-10T13:19:20;16.60;1.00
6496;DHT22;3281;47.658;9.166;2023-05-10T13:21:47;16.60;1.00
6496;DHT22;3281;47.658;9.166;2023-05-10T13:24:13;16.50;1.00
6496;DHT22;3281;47.658;9.166;2023-05-10T13:26:40;16.50;1.00
6496;DHT22;3281;47.658;9.166;2023-05-10T13:29:07;16.40;1.00
6496;DHT22;3281;47.658;9.166;2023-05-10T13:31:34;16.40;1.00
6496;DHT22;3281;47.658;9.166;2023-05-10T13:34:02;16.40;1.00
6496;DHT22;3281;47.658;9.166;2023-05-10T13:36:30;16.50;1.00
6496;DHT22;3281;47.658;9.166;2023-05-10T13:38:56;16.50;1.00
6496;DHT22;3281;47.658;9.166;2023-05-10T13:41:23;16.50;1.00
6496;DHT22;3281;47.658;9.166;2023-05-10T13:43:50;16.60;1.00
6496;DHT22;3281;47.658;9.166;2023-05-10T13:46:17;16.70;1.00
6496;DHT22;3281;47.658;9.166;2023-05-10T13:48:44;16.70;1.00
6496;DHT22;3281;47.658;9.166;2023-05-10T13:51:10;16.60;1.00
6496;DHT22;3281;47.658;9.166;2023-05-10T13:53:39;16.70;1.00
6496;DHT22;3281;47.658;9.166;2023-05-10T13:56:06;16.60;1.00
6496;DHT22;3281;47.658;9.166;2023-05-10T13:58:33;16.70;1.00
6496;DHT22;3281;47.658;9.166;2023-05-10T14:01:01;16.60;1.00
6496;DHT22;3281;47.658;9.166;2023-05-10T14:03:27;16.60;1.00
6496;DHT22;3281;47.658;9.166;2023-05-10T14:05:54;16.60;1.00
6496;DHT22;3281;47.658;9.166;2023-05-10T14:08:21;16.60;1.00
6496;DHT22;3281;47.658;9.166;2023-05-10T14:10:49;16.60;1.00
6496;DHT22;3281;47.658;9.166;2023-05-10T14:13:17;16.60;1.00
6496;DHT22;3281;47.658;9.166;2023-05-10T14:15:44;16.60;1.00
6496;DHT22;3281;47.658;9.166;2023-05-10T14:18:11;16.50;1.00
6496;DHT22;3281;47.658;9.166;2023-05-10T14:20:38;16.50;1.00
6496;DHT22;3281;47.658;9.166;2023-05-10T14:23:05;16.40;1.00
6496;DHT22;3281;47.658;9.166;2023-05-10T14:25:31;16.40;1.00
6496;DHT22;3281;47.658;9.166;2023-05-10T14:27:59;16.30;1.00
6496;DHT22;3281;47.658;9.166;2023-05-10T14:30:26;16.30;1.00
6496;DHT22;3281;47.658;9.166;2023-05-10T14:32:53;16.30;1.00
6496;DHT22;3281;47.658;9.166;2023-05-10T14:35:20;16.20;1.00
6496;DHT22;3281;47.658;9.166;2023-05-10T14:37:47;16.30;1.00
6496;DHT22;3281;47.658;9.166;2023-05-10T14:40:14;16.30;1.00
6496;DHT22;3281;47.658;9.166;2023-05-10T14:42:42;16.30;1.00
6496;DHT22;3281;47.658;9.166;2023-05-10T14:45:11;16.30;1.00
6496;DHT22;3281;47.658;9.166;2023-05-10T14:47:38;16.20;1.00
6496;DHT22;3281;47.658;9.166;2023-05-10T14:50:05;16.10;1.00
6496;DHT22;3281;47.658;9.166;2023-05-10T14:52:32;16.00;1.00
6496;DHT22;3281;47.658;9.166;2023-05-10T14:54:59;15.90;1.00
6496;DHT22;3281;47.658;9.166;2023-05-10T14:57:26;15.90;1.00
6496;DHT22;3281;47.658;9.166;2023-05-10T14:59:54;16.00;1.00
6496;DHT22;3281;47.658;9.166;2023-05-10T15:02:23;16.00;1.00
6496;DHT22;3281;47.658;9.166;2023-05-10T15:04:49;16.00;1.00
6496;DHT22;3281;47.658;9.166;2023-05-10T15:07:16;16.10;1.00
6496;DHT22;3281;47.658;9.166;2023-05-10T15:09:43;16.20;1.00
6496;DHT22;3281;47.658;9.166;2023-05-10T15:12:10;16.20;1.00
6496;DHT22;3281;47.658;9.166;2023-05-10T15:14:37;16.10;1.00
6496;DHT22;3281;47.658;9.166;2023-05-10T15:17:06;16.00;1.00
6496;DHT22;3281;47.658;9.166;2023-05-10T15:19:35;15.90;1.00
6496;DHT22;3281;47.658;9.166;2023-05-10T15:22:03;15.90;1.00
6496;DHT22;3281;47.658;9.166;2023-05-10T15:24:30;16.00;1.00
6496;DHT22;3281;47.658;9.166;2023-05-10T15:26:57;15.90;1.00
6496;DHT22;3281;47.658;9.166;2023-05-10T15:29:24;15.90;1.00
6496;DHT22;3281;47.658;9.166;2023-05-10T15:31:51;15.90;1.00
6496;DHT22;3281;47.658;9.166;2023-05-10T15:34:18;15.90;1.00
6496;DHT22;3281;47.658;9.166;2023-05-10T15:36:46;15.90;1.00
6496;DHT22;3281;47.658;9.166;2023-05-10T15:39:12;16.00;1.00
6496;DHT22;3281;47.658;9.166;2023-05-10T15:41:39;16.00;1.00
6496;DHT22;3281;47.658;9.166;2023-05-10T15:44:06;16.00;1.00
6496;DHT22;3281;47.658;9.166;2023-05-10T15:46:32;16.00;1.00
6496;DHT22;3281;47.658;9.166;2023-05-10T15:48:59;16.10;1.00
6496;DHT22;3281;47.658;9.166;2023-05-10T15:51:26;16.00;1.00
6496;DHT22;3281;47.658;9.166;2023-05-10T15:53:54;16.00;1.00
6496;DHT22;3281;47.658;9.166;2023-05-10T15:56:21;15.90;1.00
6496;DHT22;3281;47.658;9.166;2023-05-10T15:58:48;15.90;1.00
6496;DHT22;3281;47.658;9.166;2023-05-10T16:01:14;15.90;1.00
6496;DHT22;3281;47.658;9.166;2023-05-10T16:03:41;15.90;1.00
6496;DHT22;3281;47.658;9.166;2023-05-10T16:06:08;15.90;1.00
6496;DHT22;3281;47.658;9.166;2023-05-10T16:08:35;15.90;1.00
6496;DHT22;3281;47.658;9.166;2023-05-10T16:11:03;15.90;1.00
6496;DHT22;3281;47.658;9.166;2023-05-10T16:13:29;15.80;1.00
6496;DHT22;3281;47.658;9.166;2023-05-10T16:15:56;15.80;1.00
6496;DHT22;3281;47.658;9.166;2023-05-10T16:18:23;15.80;1.00
6496;DHT22;3281;47.658;9.166;2023-05-10T16:20:50;15.80;1.00
6496;DHT22;3281;47.658;9.166;2023-05-10T16:23:17;15.80;1.00
6496;DHT22;3281;47.658;9.166;2023-05-10T16:25:44;15.70;1.00
6496;DHT22;3281;47.658;9.166;2023-05-10T16:28:12;15.70;1.00